»·PEaware :: N113SX KBFI-KHQM

N113SX :: KBFI-KHQM

FLIGHT INFORMATION

Flight Status: Arrived
Operator: Privately registered:
United States
More flights under this callsign
Pilot: Charles S. (30084)
Aircraft: MOONEY M-20 201 202 205 220 ATS MSE
(M20P)
More flights by this aircraft type
Origin: KBFI Boeing Field/King Co Intl
United States
Destination: KHQM Bowerman
United States
More flights between these airports :: More routes between these airports
Route:
File this flight plan on PilotEdge
Remarks:
Altitude:
(Current/Filed)
3,000ft
Speed:
(Current/Filed)
165kts
Departed: 17-Jul-20 05:29 PM
Arrived: 17-Jul-20 06:07 PM
Distance/Time
Traveled:
74nm/0:37
Distance/Time
To Go:
Arrived

Flight Plot

Page will automatically refresh every two minutes.

Flight plan parsing failed; only flown route is shown


Map Options




Map Legend


Flown Route
Filed Route
Departure Airport
Arrival Airport
Navaid (VOR, NDB)
Fix

Horizontal Profiles

Position Reports

Time Latitude Longitude Heading Altitude Ground
Speed
17-Jul-20 17:14 47.520419 -122.297064 178 20ft 0kts
17-Jul-20 17:15 47.520419 -122.297064 178 20ft 0kts
17-Jul-20 17:16 47.520419 -122.297064 178 20ft 0kts
17-Jul-20 17:17 47.520419 -122.297064 178 20ft 0kts
17-Jul-20 17:18 47.520419 -122.297064 178 20ft 0kts
17-Jul-20 17:19 47.520419 -122.297064 178 20ft 0kts
17-Jul-20 17:20 47.520419 -122.297064 178 20ft 0kts
17-Jul-20 17:21 47.520419 -122.297064 178 20ft 0kts
17-Jul-20 17:22 47.520927 -122.296454 330 20ft 10kts
17-Jul-20 17:23 47.525330 -122.300060 329 20ft 23kts
17-Jul-20 17:24 47.531435 -122.305233 330 20ft 26kts
17-Jul-20 17:25 47.537701 -122.310539 329 20ft 22kts
17-Jul-20 17:26 47.539858 -122.312081 60 20ft 0kts
17-Jul-20 17:27 47.539969 -122.311803 57 20ft 5kts
17-Jul-20 17:28 47.531494 -122.303883 149 107ft 99kts
17-Jul-20 17:29 47.502043 -122.278887 150 1080ft 133kts
17-Jul-20 17:30 47.467270 -122.249794 150 1718ft 164kts
17-Jul-20 17:31 47.425395 -122.222313 165 1707ft 161kts
17-Jul-20 17:32 47.382056 -122.213739 188 1708ft 157kts
17-Jul-20 17:33 47.339268 -122.220764 187 1708ft 155kts
17-Jul-20 17:34 47.311253 -122.260538 249 1707ft 149kts
17-Jul-20 17:35 47.297594 -122.318108 255 1705ft 148kts
17-Jul-20 17:36 47.286251 -122.374399 256 1985ft 128kts
17-Jul-20 17:37 47.276749 -122.422793 256 2912ft 134kts
17-Jul-20 17:38 47.265866 -122.478840 253 2906ft 150kts
17-Jul-20 17:39 47.253719 -122.540016 254 2903ft 158kts
17-Jul-20 17:40 47.241430 -122.602717 255 2901ft 159kts
17-Jul-20 17:41 47.229154 -122.665250 256 2901ft 157kts
17-Jul-20 17:42 47.217179 -122.726127 257 2903ft 153kts
17-Jul-20 17:43 47.205493 -122.785363 256 2906ft 148kts
17-Jul-20 17:44 47.194110 -122.842900 255 2907ft 144kts
17-Jul-20 17:45 47.182995 -122.898878 253 2907ft 142kts
17-Jul-20 17:46 47.171911 -122.954507 254 2901ft 141kts
17-Jul-20 17:47 47.160784 -123.010223 254 2895ft 141kts
17-Jul-20 17:48 47.149665 -123.065751 254 2888ft 141kts
17-Jul-20 17:49 47.138514 -123.121278 254 2857ft 143kts
17-Jul-20 17:50 47.127261 -123.177164 254 2844ft 141kts
17-Jul-20 17:51 47.116058 -123.232633 254 2844ft 141kts
17-Jul-20 17:52 47.104885 -123.287888 254 2844ft 141kts
17-Jul-20 17:53 47.093685 -123.343058 254 2844ft 141kts
17-Jul-20 17:54 47.082431 -123.398307 254 2851ft 140kts
17-Jul-20 17:55 47.071235 -123.453130 255 2863ft 140kts
17-Jul-20 17:56 47.060043 -123.507783 256 2876ft 139kts
17-Jul-20 17:57 47.048835 -123.562365 256 2888ft 139kts
17-Jul-20 17:58 47.037594 -123.616963 257 2899ft 139kts
17-Jul-20 17:59 47.026405 -123.671158 256 2901ft 140kts
17-Jul-20 18:00 47.009432 -123.724404 246 2638ft 148kts
17-Jul-20 18:01 46.991035 -123.776792 252 2382ft 144kts
17-Jul-20 18:02 46.984553 -123.827071 263 1588ft 96kts
17-Jul-20 18:03 46.980138 -123.863481 262 1046ft 84kts
17-Jul-20 18:04 46.976307 -123.894823 262 598ft 71kts
17-Jul-20 18:05 46.972899 -123.922336 263 119ft 67kts
17-Jul-20 18:06 46.972328 -123.933463 347 22ft 0kts
17-Jul-20 18:07 46.973186 -123.928851 81 24ft 21kts
17-Jul-20 18:08 46.972534 -123.926910 208 24ft 11kts
17-Jul-20 18:09 46.971363 -123.935191 261 52ft 86kts
17-Jul-20 18:10 46.964028 -123.977526 257 1005ft 119kts
17-Jul-20 18:11 46.984683 -123.994865 47 1097ft 123kts
17-Jul-20 18:12 46.992435 -123.948212 75 1106ft 115kts
17-Jul-20 18:13 46.998678 -123.902135 75 1091ft 115kts
17-Jul-20 18:14 46.994061 -123.861319 165 1112ft 109kts
17-Jul-20 18:15 46.978153 -123.880832 263 797ft 88kts
17-Jul-20 18:16 46.974239 -123.911852 263 299ft 68kts
17-Jul-20 18:17 46.971879 -123.933374 348 22ft 13kts
17-Jul-20 18:18 46.972388 -123.933494 349 22ft 0kts
17-Jul-20 18:19 46.972973 -123.931121 53 21ft 10kts
17-Jul-20 18:20 46.973788 -123.928715 358 25ft 0kts

Navigation Log

Ident Type
Flight plan parsing failed, navigation log unavailable